createdAt,value
2022-10-29T00:01:08.348Z,80.88
2022-10-29T00:03:38.016Z,81.17
2022-10-29T00:06:10.140Z,81.47
2022-10-29T00:08:40.857Z,81.67
2022-10-29T00:11:12.133Z,81.63
2022-10-29T00:13:40.580Z,81.63
2022-10-29T00:16:11.416Z,81.75
2022-10-29T00:18:41.140Z,81.89
2022-10-29T00:21:14.584Z,81.98
2022-10-29T00:23:42.898Z,82.02
2022-10-29T00:26:11.547Z,81.66
2022-10-29T00:28:40.115Z,81.43
2022-10-29T00:31:11.489Z,81.22
2022-10-29T00:33:41.060Z,80.45
2022-10-29T00:36:13.116Z,79.50
2022-10-29T00:38:41.328Z,79.23
2022-10-29T00:41:13.838Z,79.05
2022-10-29T00:43:48.567Z,78.80
2022-10-29T00:46:25.659Z,78.29
2022-10-29T00:48:59.629Z,78.07
2022-10-29T00:51:31.131Z,78.11
2022-10-29T00:54:05.924Z,78.15
2022-10-29T00:56:39.440Z,77.67
2022-10-29T00:59:10.292Z,77.80
2022-10-29T01:01:40.212Z,77.66
2022-10-29T01:04:11.787Z,77.64
2022-10-29T01:06:42.189Z,77.85
2022-10-29T01:09:10.286Z,78.07
2022-10-29T01:11:56.188Z,78.23
2022-10-29T01:14:34.229Z,78.29
2022-10-29T01:17:16.868Z,78.02
2022-10-29T01:21:10.253Z,77.99
2022-10-29T01:24:35.777Z,78.04
2022-10-29T01:28:00.987Z,78.04
2022-10-29T01:31:01.842Z,78.30
2022-10-29T01:33:41.345Z,78.50
2022-10-29T01:36:19.741Z,78.96
2022-10-29T01:39:03.481Z,79.15
2022-10-29T01:41:42.614Z,79.16
2022-10-29T01:44:29.097Z,79.51
2022-10-29T01:47:02.315Z,79.84
2022-10-29T01:49:37.972Z,80.43
2022-10-29T01:52:12.203Z,80.76
2022-10-29T01:54:42.902Z,80.80
2022-10-29T01:57:33.720Z,81.05
2022-10-29T02:00:07.444Z,81.17
2022-10-29T02:02:52.566Z,81.16
2022-10-29T02:05:33.464Z,81.20
2022-10-29T02:08:17.765Z,81.14
2022-10-29T02:10:54.851Z,81.21
2022-10-29T02:13:32.493Z,81.26
2022-10-29T02:16:05.307Z,81.35
2022-10-29T02:18:42.870Z,81.14
2022-10-29T02:21:10.977Z,81.58
2022-10-29T02:23:39.146Z,81.47
2022-10-29T02:26:07.121Z,81.73
2022-10-29T02:28:35.197Z,81.94
2022-10-29T02:31:03.183Z,82.02
2022-10-29T02:33:31.181Z,82.18
2022-10-29T02:36:00.589Z,82.29
2022-10-29T02:38:28.819Z,82.10
2022-10-29T02:40:56.839Z,82.03
2022-10-29T02:43:24.898Z,82.14
2022-10-29T02:46:11.982Z,82.29
2022-10-29T02:48:39.985Z,82.12
2022-10-29T02:51:09.448Z,82.08
2022-10-29T02:53:37.828Z,82.35
2022-10-29T02:56:08.044Z,82.61
2022-10-29T02:58:36.134Z,82.99
2022-10-29T03:01:04.653Z,83.01
2022-10-29T03:03:33.156Z,83.01
2022-10-29T03:06:01.143Z,83.35
2022-10-29T03:08:30.590Z,83.63
2022-10-29T03:10:58.661Z,83.96
2022-10-29T03:13:26.770Z,84.19
2022-10-29T03:15:54.785Z,84.30
2022-10-29T03:18:22.767Z,84.57
2022-10-29T03:20:50.784Z,84.54
2022-10-29T03:23:18.789Z,84.59
2022-10-29T03:25:55.747Z,84.79
2022-10-29T03:28:27.728Z,84.91
2022-10-29T03:30:55.899Z,85.05
2022-10-29T03:33:25.852Z,85.07
2022-10-29T03:35:58.623Z,85.43
2022-10-29T03:38:27.626Z,85.49
2022-10-29T03:40:57.266Z,85.62
2022-10-29T03:43:26.147Z,85.72
2022-10-29T03:45:56.046Z,85.79
2022-10-29T03:48:26.114Z,86.00
2022-10-29T03:50:58.418Z,86.06
2022-10-29T03:53:27.067Z,86.04
2022-10-29T03:55:58.722Z,86.25
2022-10-29T03:58:28.025Z,86.32
2022-10-29T04:00:58.569Z,86.38
2022-10-29T04:03:27.530Z,86.50
2022-10-29T04:05:56.501Z,86.56
2022-10-29T04:08:25.939Z,86.46
2022-10-29T04:10:54.357Z,86.53
2022-10-29T04:13:23.647Z,86.30
2022-10-29T04:15:55.836Z,86.39
2022-10-29T04:18:25.409Z,86.80
2022-10-29T04:29:19.722Z,87.11
2022-10-29T04:31:47.771Z,87.05
2022-10-29T04:34:15.791Z,87.03
2022-10-29T04:36:43.745Z,86.85
2022-10-29T04:39:11.724Z,86.98
2022-10-29T04:41:39.714Z,87.07
2022-10-29T04:44:07.685Z,87.11
2022-10-29T04:46:37.048Z,87.51
2022-10-29T04:49:05.110Z,87.56
2022-10-29T04:51:33.075Z,87.69
2022-10-29T04:54:01.051Z,87.81
2022-10-29T04:56:30.578Z,87.91
2022-10-29T04:58:58.599Z,87.88
2022-10-29T05:01:26.926Z,87.94
2022-10-29T05:03:59.038Z,88.14
2022-10-29T05:06:28.283Z,88.22
2022-10-29T05:08:56.241Z,88.12
2022-10-29T05:11:24.203Z,87.99
2022-10-29T05:13:52.209Z,87.91
2022-10-29T05:16:20.162Z,87.80
2022-10-29T05:18:48.159Z,87.85
2022-10-29T05:21:17.445Z,87.99
2022-10-29T05:23:45.401Z,88.15
2022-10-29T05:26:13.380Z,88.24
2022-10-29T05:28:41.371Z,88.20
2022-10-29T05:31:09.315Z,88.36
2022-10-29T05:33:37.280Z,88.46
2022-10-29T05:36:06.258Z,88.56
2022-10-29T05:38:35.593Z,88.49
2022-10-29T05:41:03.798Z,88.51
2022-10-29T05:43:31.984Z,88.42
2022-10-29T05:45:59.971Z,88.44
2022-10-29T05:48:28.008Z,88.48
2022-10-29T05:50:57.920Z,88.61
2022-10-29T05:53:25.907Z,88.72
2022-10-29T05:55:55.224Z,88.92
2022-10-29T05:58:23.181Z,88.93
2022-10-29T06:00:51.514Z,88.98
2022-10-29T06:03:22.115Z,89.13
2022-10-29T06:05:51.725Z,89.15
2022-10-29T06:08:20.228Z,89.27
2022-10-29T06:10:48.229Z,89.18
2022-10-29T06:13:21.416Z,89.31
2022-10-29T06:15:51.347Z,89.17
2022-10-29T06:18:19.294Z,89.16
2022-10-29T06:20:47.255Z,89.08
2022-10-29T06:23:15.214Z,88.97
2022-10-29T06:25:43.202Z,88.92
2022-10-29T06:28:15.218Z,88.71
2022-10-29T06:30:49.036Z,88.56
2022-10-29T06:33:17.515Z,88.42
2022-10-29T06:35:45.830Z,88.22
2022-10-29T06:38:14.615Z,88.15
2022-10-29T06:40:44.668Z,87.79
2022-10-29T06:43:13.880Z,87.42
2022-10-29T06:45:41.863Z,87.24
2022-10-29T06:48:11.191Z,86.90
2022-10-29T06:50:39.147Z,86.43
2022-10-29T06:53:10.772Z,85.93
2022-10-29T06:55:38.980Z,85.54
2022-10-29T06:58:12.489Z,84.62
2022-10-29T07:00:41.791Z,83.91
2022-10-29T07:03:14.991Z,83.04
2022-10-29T07:05:43.182Z,82.35
2022-10-29T07:08:11.836Z,81.98
2022-10-29T07:10:41.079Z,81.74
2022-10-29T07:13:09.090Z,81.93
2022-10-29T07:15:37.165Z,81.93
2022-10-29T07:18:07.684Z,81.82
2022-10-29T07:20:39.688Z,81.36
2022-10-29T07:23:08.231Z,80.92
2022-10-29T07:25:38.397Z,80.55
2022-10-29T07:28:09.089Z,80.31
2022-10-29T07:30:37.336Z,79.87
2022-10-29T07:33:05.581Z,78.97
2022-10-29T07:35:36.388Z,78.22
2022-10-29T07:38:09.171Z,77.75
2022-10-29T07:40:39.263Z,76.94
2022-10-29T07:43:07.525Z,76.21
2022-10-29T07:45:35.555Z,75.24
2022-10-29T07:48:07.757Z,73.96
2022-10-29T07:50:38.520Z,73.27
2022-10-29T07:53:08.123Z,72.40
2022-10-29T07:55:36.919Z,71.62
2022-10-29T07:58:07.468Z,70.73
2022-10-29T08:00:38.101Z,69.71
2022-10-29T08:03:07.719Z,68.69
2022-10-29T08:05:37.141Z,68.13
2022-10-29T08:08:06.552Z,67.93
2022-10-29T08:10:36.491Z,68.22
2022-10-29T08:13:07.279Z,67.84
2022-10-29T08:15:36.327Z,67.71
2022-10-29T08:18:12.625Z,67.59
2022-10-29T08:20:42.055Z,67.17
2022-10-29T08:23:10.426Z,67.64
2022-10-29T08:25:41.476Z,66.96
2022-10-29T08:28:11.910Z,67.24
2022-10-29T08:30:40.750Z,67.27
2022-10-29T08:33:08.882Z,67.26
2022-10-29T08:35:36.889Z,66.65
2022-10-29T08:38:06.280Z,66.68
2022-10-29T08:40:51.294Z,66.93
2022-10-29T08:44:04.604Z,66.59
2022-10-29T08:46:44.283Z,66.36
2022-10-29T08:49:19.354Z,66.40
2022-10-29T08:51:56.294Z,65.92
2022-10-29T08:54:31.383Z,65.60
2022-10-29T08:57:07.420Z,66.01
2022-10-29T08:59:47.065Z,65.72
2022-10-29T09:02:18.745Z,65.16
2022-10-29T09:04:47.020Z,64.60
2022-10-29T09:07:43.082Z,64.13
2022-10-29T09:10:25.690Z,63.57
2022-10-29T09:13:21.135Z,64.12
2022-10-29T09:16:18.006Z,64.29
2022-10-29T09:19:17.371Z,64.88
2022-10-29T09:22:00.052Z,64.10
2022-10-29T09:24:40.345Z,64.56
2022-10-29T09:27:21.175Z,64.28
2022-10-29T09:30:05.325Z,64.19
2022-10-29T09:32:39.858Z,64.20
2022-10-29T09:35:15.417Z,64.60
2022-10-29T09:37:50.619Z,64.97
2022-10-29T09:40:34.164Z,64.88
2022-10-29T09:43:16.445Z,65.32
2022-10-29T09:45:55.267Z,65.46
2022-10-29T09:48:34.310Z,65.28
2022-10-29T09:51:18.832Z,65.48
2022-10-29T09:53:47.120Z,65.36
2022-10-29T09:56:15.113Z,65.18
2022-10-29T09:58:50.789Z,65.46
2022-10-29T10:01:24.596Z,64.90
2022-10-29T10:04:06.088Z,64.33
2022-10-29T10:07:06.979Z,63.71
2022-10-29T10:09:57.274Z,63.16
2022-10-29T10:12:29.152Z,62.67
2022-10-29T10:15:09.015Z,62.79
2022-10-29T10:18:01.328Z,62.59
2022-10-29T10:20:44.244Z,62.13
2022-10-29T10:23:27.296Z,61.90
2022-10-29T10:26:00.445Z,61.70
2022-10-29T10:28:34.906Z,61.78
2022-10-29T10:31:13.014Z,62.06
2022-10-29T10:33:52.192Z,61.64
2022-10-29T10:36:24.491Z,61.77
2022-10-29T10:38:56.291Z,62.01
2022-10-29T10:41:28.576Z,61.76
2022-10-29T10:44:01.300Z,61.78
2022-10-29T10:46:34.678Z,62.20
2022-10-29T10:49:07.099Z,61.93
2022-10-29T10:51:38.198Z,61.57
2022-10-29T10:54:28.516Z,61.54
2022-10-29T10:57:03.166Z,61.48
2022-10-29T10:59:51.912Z,61.50
2022-10-29T11:02:33.007Z,61.23
2022-10-29T11:05:13.084Z,60.68
2022-10-29T11:07:48.020Z,60.61
2022-10-29T11:10:19.235Z,60.11
2022-10-29T11:12:54.359Z,59.69
2022-10-29T11:15:35.590Z,59.10
2022-10-29T11:18:18.803Z,58.00
2022-10-29T11:20:57.755Z,58.49
2022-10-29T11:23:41.287Z,58.84
2022-10-29T11:26:18.521Z,59.22
2022-10-29T11:28:56.183Z,59.27
2022-10-29T11:31:33.118Z,59.02
2022-10-29T11:34:16.919Z,58.82
2022-10-29T11:36:53.484Z,58.80
2022-10-29T11:39:30.366Z,58.65
2022-10-29T11:42:01.180Z,59.00
2022-10-29T11:44:37.907Z,59.32
2022-10-29T11:47:31.472Z,59.43
2022-10-29T11:50:23.041Z,60.57
2022-10-29T11:53:04.821Z,61.13
2022-10-29T11:55:44.235Z,61.53
2022-10-29T11:58:33.381Z,61.86
2022-10-29T12:01:21.213Z,62.50
2022-10-29T12:04:21.332Z,62.88
2022-10-29T12:07:17.987Z,63.47
2022-10-29T12:10:09.293Z,63.70
2022-10-29T12:12:49.035Z,63.61
2022-10-29T12:15:27.335Z,62.82
2022-10-29T12:18:14.088Z,62.46
2022-10-29T12:20:52.486Z,61.93
2022-10-29T12:23:37.098Z,61.36
2022-10-29T12:26:15.266Z,60.75
2022-10-29T12:28:56.422Z,58.96
2022-10-29T12:31:35.225Z,57.51
2022-10-29T12:34:09.490Z,57.42
2022-10-29T12:36:53.301Z,57.26
2022-10-29T12:39:32.341Z,58.70
2022-10-29T12:42:07.021Z,59.74
2022-10-29T12:44:46.327Z,60.82
2022-10-29T12:47:21.028Z,61.39
2022-10-29T12:50:12.464Z,62.32
2022-10-29T12:52:47.344Z,62.51
2022-10-29T12:55:18.902Z,63.01
2022-10-29T12:57:46.868Z,63.54
2022-10-29T13:00:47.346Z,63.23
2022-10-29T13:04:00.756Z,63.74
2022-10-29T13:06:52.427Z,63.66
2022-10-29T13:09:23.183Z,63.31
2022-10-29T13:11:55.746Z,63.51
2022-10-29T13:14:30.288Z,63.99
2022-10-29T13:17:00.013Z,63.98
2022-10-29T13:19:50.414Z,64.43
2022-10-29T13:22:56.053Z,64.36
2022-10-29T13:25:49.584Z,64.46
2022-10-29T13:28:50.597Z,64.90
2022-10-29T13:31:44.997Z,64.69
2022-10-29T13:34:51.591Z,64.63
2022-10-29T13:38:03.389Z,64.59
2022-10-29T13:41:11.841Z,64.83
2022-10-29T13:43:42.465Z,65.22
2022-10-29T13:46:45.686Z,65.49
2022-10-29T13:49:20.694Z,65.37
2022-10-29T13:51:59.950Z,65.89
2022-10-29T13:54:41.204Z,65.92
2022-10-29T13:57:21.782Z,66.28
2022-10-29T13:59:58.716Z,66.30
2022-10-29T14:02:55.456Z,66.82
2022-10-29T14:05:29.934Z,66.69
2022-10-29T14:08:07.651Z,66.70
2022-10-29T14:10:45.984Z,66.66
2022-10-29T14:13:33.164Z,66.77
2022-10-29T14:16:08.213Z,66.50
2022-10-29T14:18:40.638Z,66.36
2022-10-29T14:21:15.615Z,66.70
2022-10-29T14:23:57.734Z,66.72
2022-10-29T14:26:26.839Z,66.51
2022-10-29T14:28:55.108Z,66.39
2022-10-29T14:31:25.753Z,66.50
2022-10-29T14:33:58.136Z,66.74
2022-10-29T14:36:35.338Z,66.85
2022-10-29T14:39:08.781Z,67.21
2022-10-29T14:41:40.721Z,67.54
2022-10-29T14:44:18.506Z,67.63
2022-10-29T14:46:59.028Z,67.86
2022-10-29T14:49:30.064Z,68.18
2022-10-29T14:52:02.363Z,68.61
2022-10-29T14:54:36.315Z,68.64
2022-10-29T14:57:08.694Z,69.12
2022-10-29T14:59:37.362Z,69.50
2022-10-29T15:05:07.541Z,70.25
2022-10-29T15:07:37.177Z,70.40
2022-10-29T15:10:23.119Z,70.50
2022-10-29T15:12:52.847Z,71.17
2022-10-29T15:15:28.542Z,71.55
2022-10-29T15:18:04.918Z,71.97
2022-10-29T15:20:47.319Z,72.27
2022-10-29T15:23:23.583Z,72.82
2022-10-29T15:25:58.840Z,73.41
2022-10-29T15:28:31.032Z,73.75
2022-10-29T15:31:03.143Z,74.01
2022-10-29T15:33:32.846Z,74.29
2022-10-29T15:36:05.274Z,74.57
2022-10-29T15:39:20.125Z,74.68
2022-10-29T15:41:51.745Z,74.81
2022-10-29T15:44:36.321Z,75.30
2022-10-29T15:47:22.042Z,75.58
2022-10-29T15:49:50.041Z,75.52
2022-10-29T15:52:22.883Z,75.48
2022-10-29T15:54:51.152Z,75.70
2022-10-29T15:57:19.328Z,75.40
2022-10-29T15:59:47.362Z,75.77
2022-10-29T16:02:18.366Z,75.80
2022-10-29T16:04:46.459Z,76.15
2022-10-29T16:07:17.005Z,76.60
2022-10-29T16:09:50.921Z,76.97
2022-10-29T16:12:19.370Z,77.18
2022-10-29T16:14:47.439Z,77.44
2022-10-29T16:17:18.514Z,77.43
2022-10-29T16:19:46.685Z,77.75
2022-10-29T16:22:17.794Z,77.83
2022-10-29T16:24:47.381Z,77.81
2022-10-29T16:27:18.360Z,78.22
2022-10-29T16:29:49.458Z,78.31
2022-10-29T16:32:20.389Z,78.54
2022-10-29T16:34:48.527Z,78.39
2022-10-29T16:37:19.146Z,78.56
2022-10-29T16:39:48.530Z,78.50
2022-10-29T16:42:31.449Z,77.64
2022-10-29T16:44:59.517Z,77.41
2022-10-29T16:47:27.821Z,77.52
2022-10-29T16:49:56.109Z,77.76
2022-10-29T16:52:27.551Z,77.95
2022-10-29T16:54:58.860Z,78.36
2022-10-29T16:57:27.035Z,78.34
2022-10-29T16:59:55.061Z,78.48
2022-10-29T17:02:22.997Z,78.67
2022-10-29T17:04:50.964Z,79.08
2022-10-29T17:07:19.916Z,79.23
2022-10-29T17:09:47.903Z,79.76
2022-10-29T17:12:17.276Z,80.23
2022-10-29T17:14:45.241Z,80.59
2022-10-29T17:17:13.268Z,80.83
2022-10-29T17:19:41.328Z,81.32
2022-10-29T17:22:11.359Z,81.61
2022-10-29T17:24:39.367Z,82.13
2022-10-29T17:27:07.502Z,82.41
2022-10-29T17:29:37.072Z,82.62
2022-10-29T17:32:06.532Z,82.98
2022-10-29T17:34:35.232Z,83.39
2022-10-29T17:37:03.191Z,83.84
2022-10-29T17:39:31.226Z,84.03
2022-10-29T17:41:59.492Z,84.21
2022-10-29T17:44:27.657Z,84.47
2022-10-29T17:46:57.359Z,84.67
2022-10-29T17:49:26.759Z,84.91
2022-10-29T17:51:54.760Z,85.16
2022-10-29T17:54:22.754Z,85.24
2022-10-29T17:56:51.479Z,85.50
2022-10-29T17:59:19.448Z,85.59
2022-10-29T18:01:47.602Z,85.81
2022-10-29T18:04:17.148Z,85.93
2022-10-29T18:06:45.124Z,86.21
2022-10-29T18:09:17.080Z,86.27
2022-10-29T18:11:50.258Z,86.36
2022-10-29T18:14:18.388Z,86.65
2022-10-29T18:16:46.756Z,86.87
2022-10-29T18:19:16.120Z,87.18
2022-10-29T18:21:44.174Z,87.64
2022-10-29T18:24:12.520Z,87.81
2022-10-29T18:26:40.538Z,88.12
2022-10-29T18:29:12.595Z,88.42
2022-10-29T18:31:44.790Z,88.45
2022-10-29T18:34:14.983Z,88.59
2022-10-29T18:36:47.380Z,88.70
2022-10-29T18:39:15.421Z,88.63
2022-10-29T18:41:43.359Z,88.52
2022-10-29T18:44:11.344Z,88.55
2022-10-29T18:46:39.393Z,88.42
2022-10-29T18:49:07.339Z,88.24
2022-10-29T18:51:35.288Z,88.14
2022-10-29T18:54:05.003Z,88.11
2022-10-29T18:56:32.994Z,88.00
2022-10-29T18:59:01.505Z,87.87
2022-10-29T19:01:32.389Z,87.80
2022-10-29T19:04:03.123Z,87.71
2022-10-29T19:06:34.794Z,87.74
2022-10-29T19:09:07.240Z,87.64
2022-10-29T19:11:36.115Z,87.63
2022-10-29T19:14:07.545Z,87.62
2022-10-29T19:16:35.686Z,87.62
2022-10-29T19:21:40.328Z,87.65
2022-10-29T19:24:14.422Z,87.76
2022-10-29T19:26:43.314Z,87.78
2022-10-29T19:29:12.676Z,87.56
2022-10-29T19:31:41.750Z,87.30
2022-10-29T19:34:10.252Z,86.72
2022-10-29T19:36:40.075Z,85.92
2022-10-29T19:39:09.801Z,85.55
2022-10-29T19:41:37.819Z,85.00
2022-10-29T19:44:06.517Z,84.84
2022-10-29T19:46:34.503Z,84.74
2022-10-29T19:49:02.577Z,84.62
2022-10-29T19:51:30.708Z,84.63
2022-10-29T19:54:01.806Z,84.76
2022-10-29T19:56:31.096Z,84.95
2022-10-29T19:58:59.152Z,85.14
2022-10-29T20:01:27.269Z,85.34
2022-10-29T20:03:55.420Z,85.54
2022-10-29T20:06:23.436Z,85.68
2022-10-29T20:08:51.660Z,85.80
2022-10-29T20:11:19.613Z,85.93
2022-10-29T20:13:48.909Z,86.00
2022-10-29T20:16:20.451Z,86.06
2022-10-29T20:18:49.504Z,86.23
2022-10-29T20:21:18.200Z,86.16
2022-10-29T20:23:46.594Z,86.15
2022-10-29T20:26:14.660Z,86.11
2022-10-29T20:28:42.792Z,86.00
2022-10-29T20:31:14.609Z,85.79
2022-10-29T20:33:42.677Z,85.75
2022-10-29T20:36:11.014Z,85.72
2022-10-29T20:38:39.005Z,85.54
2022-10-29T20:41:07.056Z,85.03
2022-10-29T20:43:35.213Z,84.60
2022-10-29T20:46:04.239Z,84.35
2022-10-29T20:48:36.153Z,84.21
2022-10-29T20:51:05.231Z,83.82
2022-10-29T20:53:33.254Z,83.14
2022-10-29T20:56:01.289Z,82.77
2022-10-29T20:58:29.349Z,82.34
2022-10-29T21:01:05.487Z,82.71
2022-10-29T21:03:34.944Z,82.79
2022-10-29T21:06:03.633Z,82.92
2022-10-29T21:08:32.497Z,83.17
2022-10-29T21:11:01.440Z,83.61
2022-10-29T21:13:30.817Z,83.95
2022-10-29T21:16:06.503Z,83.98
2022-10-29T21:18:40.139Z,84.01
2022-10-29T21:21:09.242Z,84.08
2022-10-29T21:23:38.491Z,83.25
2022-10-29T21:26:08.514Z,81.49
2022-10-29T21:28:36.696Z,80.93
2022-10-29T21:31:05.149Z,80.58
2022-10-29T21:33:33.130Z,80.49
2022-10-29T21:36:03.037Z,80.58
2022-10-29T21:38:33.244Z,80.64
2022-10-29T21:41:01.998Z,80.68
2022-10-29T21:43:30.484Z,80.76
2022-10-29T21:45:58.508Z,80.75
2022-10-29T21:48:27.421Z,80.74
2022-10-29T21:51:04.497Z,80.63
2022-10-29T21:53:32.996Z,80.40
2022-10-29T21:56:03.843Z,80.53
2022-10-29T21:58:31.971Z,80.42
2022-10-29T22:01:05.408Z,80.64
2022-10-29T22:03:35.264Z,80.83
2022-10-29T22:06:07.015Z,80.85
2022-10-29T22:08:35.616Z,80.54
2022-10-29T22:11:03.996Z,80.12
2022-10-29T22:13:33.680Z,79.71
2022-10-29T22:16:02.136Z,79.45
2022-10-29T22:18:31.035Z,79.34
2022-10-29T22:21:14.249Z,78.91
2022-10-29T22:23:46.781Z,78.78
2022-10-29T22:26:17.474Z,78.66
2022-10-29T22:28:47.106Z,78.52
2022-10-29T22:31:17.516Z,78.20
2022-10-29T22:33:46.803Z,76.96
2022-10-29T22:36:19.225Z,76.72
2022-10-29T22:38:47.730Z,76.72
2022-10-29T22:41:18.210Z,76.86
2022-10-29T22:43:46.723Z,76.93
2022-10-29T22:46:17.431Z,77.07
2022-10-29T22:48:45.685Z,77.12
2022-10-29T22:51:17.898Z,77.27
2022-10-29T22:53:46.890Z,77.65
2022-10-29T22:56:16.493Z,77.73
2022-10-29T22:58:44.856Z,78.12
2022-10-29T23:01:15.602Z,78.34
2022-10-29T23:03:44.496Z,78.59
2022-10-29T23:06:17.627Z,78.62
2022-10-29T23:08:47.132Z,78.64
2022-10-29T23:11:19.527Z,79.00
2022-10-29T23:13:47.883Z,79.02
2022-10-29T23:16:16.692Z,78.77
2022-10-29T23:18:48.586Z,79.26
2022-10-29T23:21:18.681Z,79.48
2022-10-29T23:23:47.227Z,79.70
2022-10-29T23:26:15.558Z,79.68
2022-10-29T23:28:44.356Z,79.91
2022-10-29T23:31:15.385Z,79.93
2022-10-29T23:33:46.106Z,80.07
2022-10-29T23:36:17.764Z,80.14
2022-10-29T23:38:46.345Z,79.93
2022-10-29T23:41:15.256Z,80.21
2022-10-29T23:43:43.263Z,80.39
2022-10-29T23:46:11.263Z,80.54
2022-10-29T23:48:39.215Z,80.74
2022-10-29T23:51:07.302Z,81.08
2022-10-29T23:53:36.765Z,81.40
2022-10-29T23:56:05.556Z,81.39
2022-10-29T23:58:33.625Z,81.48
